Time;durP1;ratioP1;P1;durP2;ratioP2;P2;SDS_P1;SDS_P2;PMS_P1;PMS_P2;Temp;Humidity;BMP_temperature;BMP_pressure;BME280_temperature;BME280_humidity;BME280_pressure;Samples;Min_cycle;Max_cycle;Signal;HPM_P1;HPM_P2
2021/12/21 00:00:53;;;;;;;36.00;10.25;;;;;;;0.11;98.82;102903.81;4948710;28;20046;-77
2021/12/21 00:03:18;;;;;;;38.45;12.93;;;;;;;0.08;98.77;102920.94;4947644;28;20039;-78
2021/12/21 00:05:44;;;;;;;44.22;14.68;;;;;;;-0.10;98.66;102908.31;4949000;28;20035;-77
2021/12/21 00:08:12;;;;;;;59.55;18.17;;;;;;;-0.08;99.07;102915.31;4950751;28;20043;-77
2021/12/21 00:10:42;;;;;;;50.90;15.27;;;;;;;-0.09;98.83;102918.72;4946778;28;20074;-77
2021/12/21 00:13:21;;;;;;;39.15;11.10;;;;;;;-0.01;99.58;102924.13;4951517;28;20135;-77
2021/12/21 00:26:19;;;;;;;24.20;7.72;;;;;;;-0.06;100.00;102897.25;4970211;28;20043;-78
2021/12/21 00:28:54;;;;;;;20.55;7.32;;;;;;;-0.07;99.98;102903.25;4959216;28;20035;-79
2021/12/21 00:31:20;;;;;;;25.55;7.32;;;;;;;-0.07;100.00;102914.47;4966576;28;20197;-77
2021/12/21 00:33:47;;;;;;;26.35;7.63;;;;;;;-0.18;99.96;102900.34;4955649;28;20028;-77
2021/12/21 00:36:15;;;;;;;22.00;7.15;;;;;;;-0.17;100.00;102915.03;4964349;28;20110;-78
2021/12/21 00:38:40;;;;;;;22.38;6.70;;;;;;;-0.18;100.00;102908.97;4950317;28;20035;-78
2021/12/21 00:41:06;;;;;;;22.10;7.35;;;;;;;-0.15;100.00;102905.59;4958958;28;20145;-78
2021/12/21 00:43:33;;;;;;;22.30;6.93;;;;;;;-0.17;100.00;102913.31;4970843;28;20062;-76
2021/12/21 00:45:58;;;;;;;20.92;6.78;;;;;;;-0.14;100.00;102904.75;4972117;28;20606;-77
2021/12/21 00:48:28;;;;;;;18.27;6.80;;;;;;;-0.16;100.00;102899.56;4970541;28;20129;-77
2021/12/21 00:50:55;;;;;;;27.40;6.93;;;;;;;-0.21;99.89;102906.28;4967538;28;20041;-79
2021/12/21 00:53:20;;;;;;;24.65;6.93;;;;;;;-0.23;99.94;102896.72;4978534;28;20038;-77
2021/12/21 00:55:46;;;;;;;20.55;6.30;;;;;;;-0.22;100.00;102896.75;4973178;28;20218;-78
2021/12/21 00:58:12;;;;;;;;;;;;;;;-0.18;100.00;102896.03;4974242;28;20038;-78
2021/12/21 01:00:38;;;;;;;;;;;;;;;-0.27;99.36;102895.75;4967992;28;19922;-77
2021/12/21 01:03:08;;;;;;;;;;;;;;;-0.33;99.91;102898.16;4968859;28;19993;-77
2021/12/21 01:05:43;;;;;;;;;;;;;;;-0.35;99.99;102900.69;4976076;28;19976;-78
2021/12/21 01:08:13;;;;;;;;;;;;;;;-0.37;99.74;102899.75;4961202;28;19917;-77
2021/12/21 01:16:12;;;;;;;;;;;;;;;-0.48;99.15;102893.34;4970247;28;20390;-76
2021/12/21 01:18:52;;;;;;;;;;;;;;;-0.50;99.76;102893.31;4982049;28;20004;-76
2021/12/21 01:21:21;;;;;;;;;;;;;;;-0.49;99.60;102886.44;4968316;28;19918;-77
2021/12/21 01:31:59;;;;;;;;;;;;;;;-0.62;99.17;102882.59;4957683;28;19922;-77
2021/12/21 01:34:40;;;;;;;;;;;;;;;-0.63;100.00;102880.81;4966663;28;19918;-76
2021/12/21 01:50:29;;;;;;;;;;;;;;;-0.70;100.00;102873.72;4961825;28;19924;-77
2021/12/21 01:52:55;;;;;;;;;;;;;;;-0.76;99.81;102868.34;4967238;28;20386;-78
2021/12/21 01:55:20;;;;;;;;;;;;;;;-0.82;100.00;102857.00;4960405;28;19926;-76
2021/12/21 01:57:46;;;;;;;;;;;;;;;-0.84;100.00;102863.81;4976282;28;19973;-77
2021/12/21 02:00:11;;;;;;;;;;;;;;;-0.72;100.00;102865.03;4963308;28;19918;-77
2021/12/21 02:02:37;;;;;;;;;;;;;;;-0.73;100.00;102871.91;4961799;28;20004;-77
2021/12/21 02:05:03;;;;;;;;;;;;;;;-0.74;100.00;102866.69;4962604;28;19952;-77
2021/12/21 02:07:28;;;;;;;;;;;;;;;-0.74;100.00;102864.09;4957265;28;19922;-77
2021/12/21 02:09:53;;;;;;;;;;;;;;;-0.83;100.00;102870.72;4963649;28;19962;-78
2021/12/21 02:12:19;;;;;;;;;;;;;;;-0.83;100.00;102872.44;4972937;28;19914;-78
2021/12/21 02:22:57;;;;;;;;;;;;;;;-0.84;100.00;102870.69;4957408;28;19914;-78
2021/12/21 02:30:30;;;;;;;;;;;;;;;-1.06;100.00;102866.47;4945647;28;20595;-77
2021/12/21 02:32:55;;;;;;;;;;;;;;;-1.11;100.00;102864.66;4972039;28;19966;-76
2021/12/21 02:35:20;;;;;;;;;;;;;;;-1.05;100.00;102866.56;4939210;28;19927;-76
2021/12/21 02:37:45;;;;;;;;;;;;;;;-1.07;100.00;102857.88;4967640;28;19997;-76
2021/12/21 02:40:11;;;;;;;;;;;;;;;-1.04;100.00;102857.97;4947961;28;19922;-78
2021/12/21 02:42:36;;;;;;;;;;;;;;;-1.07;100.00;102855.31;4941867;28;19929;-76
2021/12/21 02:45:02;;;;;;;;;;;;;;;-1.09;100.00;102852.66;4956012;28;19929;-78
2021/12/21 02:47:27;;;;;;;;;;;;;;;-1.11;99.82;102856.00;4972310;28;19918;-79
2021/12/21 02:49:53;;;;;;;;;;;;;;;-1.11;100.00;102856.00;4951634;28;19958;-78
2021/12/21 02:52:18;;;;;;;;;;;;;;;-1.18;99.94;102857.50;4971978;28;19954;-77
2021/12/21 02:54:43;;;;;;;;;;;;;;;-1.15;100.00;102852.44;4937979;28;20390;-78
2021/12/21 02:57:09;;;;;;;;;;;;;;;-1.23;99.67;102850.41;4957568;28;19914;-80
2021/12/21 02:59:34;;;;;;;;;;;;;;;-1.27;100.00;102859.75;4963791;28;19934;-78
2021/12/21 03:01:59;;;;;;;;;;;;;;;-1.36;99.65;102852.56;4951187;28;19965;-76
2021/12/21 03:04:25;;;;;;;;;;;;;;;-1.33;100.00;102856.97;4949667;28;20009;-78
2021/12/21 03:12:33;;;;;;;;;;;;;;;-1.41;99.58;102851.53;4948351;28;19949;-76
2021/12/21 03:14:58;;;;;;;;;;;;;;;-1.36;100.00;102854.28;4957524;28;19953;-76
2021/12/21 03:17:23;;;;;;;;;;;;;;;-1.41;100.00;102849.81;4952917;28;19942;-77
2021/12/21 03:19:49;;;;;;;;;;;;;;;-1.33;99.93;102849.25;4950736;28;20411;-78
2021/12/21 03:22:14;;;;;;;;;;;;;;;-1.34;100.00;102847.47;4958579;28;19924;-78
2021/12/21 03:24:42;;;;;;;;;;;;;;;-1.49;99.90;102842.66;4950176;28;19915;-79
2021/12/21 03:27:08;;;;;;;;;;;;;;;-1.55;100.00;102845.91;4972035;28;20383;-78
2021/12/21 03:29:33;;;;;;;;;;;;;;;-1.58;100.00;102845.78;4954573;28;19969;-78
2021/12/21 03:31:59;;;;;;;;;;;;;;;-1.53;99.77;102846.81;4950609;28;19937;-77
2021/12/21 03:34:24;;;;;;;;;;;;;;;-1.54;100.00;102842.47;4950330;28;19918;-77
2021/12/21 03:36:50;;;;;;;;;;;;;;;-1.59;99.89;102851.75;4962921;28;19918;-78
2021/12/21 03:39:22;;;;;;;;;;;;;;;-1.69;99.68;102845.38;4946585;28;19915;-78
2021/12/21 03:41:57;;;;;;;;;;;;;;;-1.59;100.00;102844.03;4963663;28;19918;-77
2021/12/21 03:44:23;;;;;;;;;;;;;;;-1.57;100.00;102852.69;4949750;28;19957;-77
2021/12/21 03:46:52;;;;;;;;;;;;;;;-1.63;100.00;102850.78;4953563;28;20036;-78
2021/12/21 03:52:16;;;;;;;;;;;;;;;-1.53;100.00;102845.94;4966465;28;19914;-79
2021/12/21 03:54:44;;;;;;;;;;;;;;;-1.58;100.00;102844.06;4960212;28;19985;-77
2021/12/21 03:57:10;;;;;;;;;;;;;;;-1.66;100.00;102845.50;4953538;28;19914;-78
2021/12/21 03:59:35;;;;;;;;;;;;;;;-1.70;100.00;102841.03;4954365;28;19964;-78
2021/12/21 04:02:01;;;;;;;;;;;;;;;-1.67;100.00;102836.00;4955792;28;20001;-77
2021/12/21 04:04:26;;;;;;;;;;;;;;;-1.64;100.00;102838.69;4942522;28;19943;-76
2021/12/21 04:06:53;;;;;;;;;;;;;;;-1.69;100.00;102829.91;4945145;28;20329;-78
2021/12/21 04:09:18;;;;;;;;;;;;;;;-1.71;100.00;102834.16;4958500;28;19915;-78
2021/12/21 04:11:43;;;;;;;;;;;;;;;-1.68;100.00;102830.81;4983815;28;20025;-78
2021/12/21 04:14:09;;;;;;;;;;;;;;;-1.80;100.00;102826.06;4960715;28;20057;-77
2021/12/21 04:16:34;;;;;;;;;;;;;;;-1.88;100.00;102831.81;4957863;28;19914;-77
2021/12/21 04:19:00;;;;;;;;;;;;;;;-1.78;100.00;102821.84;4949021;28;19972;-76
2021/12/21 04:21:25;;;;;;;;;;;;;;;-1.69;100.00;102831.63;4983476;28;19921;-78
2021/12/21 04:23:50;;;;;;;;;;;;;;;-1.77;100.00;102821.94;4953710;28;19914;-78
2021/12/21 04:26:16;;;;;;;;;;;;;;;-1.73;100.00;102828.06;4955969;28;19926;-78
2021/12/21 04:28:42;;;;;;;;;;;;;;;-1.75;100.00;102828.00;4956559;28;20271;-78
2021/12/21 04:31:09;;;;;;;;;;;;;;;-1.79;100.00;102827.81;4967165;28;20008;-79
2021/12/21 04:33:34;;;;;;;;;;;;;;;-1.75;100.00;102825.41;4967115;28;20374;-77
2021/12/21 04:36:00;;;;;;;;;;;;;;;-1.72;100.00;102830.69;4973566;28;19922;-76
2021/12/21 04:38:30;;;;;;;;;;;;;;;-1.72;100.00;102827.25;4944617;28;20287;-77
2021/12/21 04:43:38;;;;;;;;;;;;;;;-1.76;100.00;102825.38;4959817;28;20478;-77
2021/12/21 04:46:04;;;;;;;;;;;;;;;-1.80;100.00;102823.50;4953844;28;19923;-78
2021/12/21 04:48:29;;;;;;;;;;;;;;;-1.88;100.00;102818.94;4952055;28;19922;-78
2021/12/21 04:50:54;;;;;;;;;;;;;;;-1.89;100.00;102816.31;4954137;28;19915;-77
2021/12/21 04:53:20;;;;;;;;;;;;;;;-1.94;100.00;102823.88;4976080;28;20318;-77
2021/12/21 04:55:46;;;;;;;;;;;;;;;-1.90;100.00;102822.28;4992639;28;19918;-76
2021/12/21 04:58:11;;;;;;;;;;;;;;;-2.00;100.00;102815.03;4951393;28;19921;-78
2021/12/21 05:00:37;;;;;;;;;;;;;;;-1.97;100.00;102816.03;4973186;28;19918;-78
2021/12/21 05:03:03;;;;;;;;;;;;;;;-2.06;100.00;102818.28;4942587;28;19919;-77
2021/12/21 05:05:28;;;;;;;;;;;;;;;-2.02;100.00;102817.53;4976914;28;20416;-76
2021/12/21 05:08:06;;;;;;;;;;;;;;;-1.99;100.00;102814.22;4947602;28;19972;-77
2021/12/21 05:10:32;;;;;;;;;;;;;;;-2.03;100.00;102816.69;4952291;28;19921;-79
2021/12/21 05:12:57;;;;;;;;;;;;;;;-2.01;100.00;102811.56;4957167;28;19914;-77
2021/12/21 05:15:23;;;;;;;;;;;;;;;-1.99;100.00;102812.50;4960636;28;19932;-77
2021/12/21 05:17:48;;;;;;;;;;;;;;;-2.07;100.00;102809.66;4982860;28;19919;-77
2021/12/21 05:20:13;;;;;;;;;;;;;;;-2.03;100.00;102803.81;4960801;28;20395;-78
2021/12/21 05:22:39;;;;;;;;;;;;;;;-2.05;100.00;102805.44;4948620;28;19914;-78
2021/12/21 05:25:04;;;;;;;;;;;;;;;-2.00;100.00;102812.47;4952895;28;19918;-77
2021/12/21 05:27:30;;;;;;;;;;;;;;;-2.03;100.00;102808.06;4949649;28;19914;-79
2021/12/21 05:29:55;;;;;;;;;;;;;;;-2.04;100.00;102807.19;4954672;28;20061;-78
2021/12/21 05:32:20;;;;;;;;;;;;;;;-2.00;100.00;102807.31;4972181;28;20348;-77
2021/12/21 05:34:46;;;;;;;;;;;;;;;-1.98;100.00;102808.25;4967551;28;19972;-77
2021/12/21 05:37:11;;;;;;;;;;;;;;;-1.94;100.00;102804.97;4950316;28;19953;-77
2021/12/21 05:39:43;;;;;;;;;;;;;;;-1.92;100.00;102803.31;4951310;28;20005;-77
2021/12/21 05:42:08;;;;;;;;;;;;;;;-2.02;100.00;102818.44;4951493;28;19965;-78
2021/12/21 05:44:34;;;;;;;;;;;;;;;-2.05;100.00;102820.03;4952343;28;19922;-78
2021/12/21 05:46:59;;;;;;;;;;;;;;;-2.14;100.00;102810.25;4985991;28;19997;-77
2021/12/21 05:49:24;;;;;;;;;;;;;;;-2.15;100.00;102813.63;4979765;28;20394;-77
2021/12/21 05:51:50;;;;;;;;;;;;;;;-2.13;100.00;102814.59;4949459;28;19926;-76
2021/12/21 05:54:18;;;;;;;;;;;;;;;-2.09;100.00;102816.44;4949250;28;19919;-78
2021/12/21 05:56:44;;;;;;;;;;;;;;;-2.13;100.00;102814.59;4974306;28;19973;-76
2021/12/21 05:59:09;;;;;;;;;;;;;;;-2.08;100.00;102817.31;4949478;28;19962;-79
2021/12/21 06:01:35;;;;;;;;;;;;;;;-2.10;100.00;102827.59;4950787;28;19921;-77
2021/12/21 06:04:01;;;;;;;;;;;;;;;-2.11;100.00;102828.41;4952690;28;19926;-76
2021/12/21 06:06:27;;;;;;;;;;;;;;;-2.16;100.00;102821.31;4957906;28;19973;-76
2021/12/21 06:08:54;;;;;;;;;;;;;;;-2.21;100.00;102832.31;4959810;28;19918;-76
2021/12/21 06:11:21;;;;;;;;;;;;;;;-2.23;100.00;102822.78;4961843;28;19936;-77
2021/12/21 06:27:10;;;;;;;;;;;;;;;-2.27;100.00;102818.31;4959215;28;19927;-78
2021/12/21 06:29:35;;;;;;;;;;;;;;;-2.21;100.00;102818.56;4964350;28;20399;-78
2021/12/21 06:32:01;;;;;;;;;;;;;;;-2.20;100.00;102817.72;4949200;28;19914;-78
2021/12/21 06:34:27;;;;;;;;;;;;;;;-2.18;100.00;102818.66;4949447;28;20335;-78
2021/12/21 06:36:52;;;;;;;;;;;;;;;-2.18;100.00;102821.25;4950100;28;20285;-77
2021/12/21 06:39:17;;;;;;;;;;;;;;;-2.25;100.00;102814.09;4966445;28;19918;-77
2021/12/21 06:41:43;;;;;;;;;;;;;;;-2.30;100.00;102818.19;4951407;28;19966;-76
2021/12/21 06:44:10;;;;;;;;;;;;;;;-2.38;100.00;102812.75;4958149;28;19925;-77
2021/12/21 06:51:58;;;;;;;;;;;;;;;-2.31;100.00;102824.19;4948645;28;20571;-77
2021/12/21 06:54:23;;;;;;;;;;;;;;;-2.31;100.00;102821.63;4957088;28;19918;-76
2021/12/21 06:56:49;;;;;;;;;;;;;;;-2.39;100.00;102814.44;4966419;28;19914;-77
2021/12/21 06:59:14;;;;;;;;;;;;;;;-2.39;100.00;102817.03;4957639;28;19937;-77
2021/12/21 07:01:39;;;;;;;;;;;;;;;-2.41;100.00;102813.50;4943800;28;20009;-76
2021/12/21 07:04:06;;;;;;;;;;;;;;;-2.39;100.00;102817.03;4978485;28;20314;-77
2021/12/21 07:06:33;;;;;;;;;;;;;;;-2.30;100.00;102824.22;4951581;28;19924;-76
2021/12/21 07:11:44;;;;;;;;;;;;;;;-2.41;100.00;102821.22;4962034;28;19919;-78
2021/12/21 07:19:31;;;;;;;;;;;;;;;-2.38;100.00;102826.50;4967437;28;19915;-78
2021/12/21 07:21:57;;;;;;;;;;;;;;;-2.43;100.00;102833.19;4989204;28;19937;-76
2021/12/21 07:24:23;;;;;;;;;;;;;;;-2.49;100.00;102832.91;4954471;28;19922;-75
2021/12/21 07:26:48;;;;;;;;;;;;;;;-2.57;100.00;102829.19;4967005;28;19922;-78
2021/12/21 07:29:14;;;;;;;;;;;;;;;-2.57;100.00;102836.91;4952461;28;20456;-78
2021/12/21 07:31:39;;;;;;;;;;;;;;;-2.57;100.00;102836.91;4959443;28;19918;-78
2021/12/21 07:34:04;;;;;;;;;;;;;;;-2.61;100.00;102833.31;4967757;28;19914;-77
2021/12/21 07:36:31;;;;;;;;;;;;;;;-2.63;100.00;102837.53;4959619;28;19922;-76
2021/12/21 07:38:57;;;;;;;;;;;;;;;-2.61;100.00;102838.47;4953427;28;19942;-76
2021/12/21 07:41:22;;;;;;;;;;;;;;;-2.55;100.00;102832.69;4962119;28;19917;-77
2021/12/21 07:43:47;;;;;;;;;;;;;;;-2.57;100.00;102832.59;4958363;28;20497;-78
2021/12/21 07:46:13;;;;;;;;;;;;;;;-2.53;100.00;102836.19;4950740;28;19928;-77
2021/12/21 07:48:40;;;;;;;;;;;;;;;-2.44;100.00;102833.09;4976346;28;19918;-76
2021/12/21 07:51:07;;;;;;;;;;;;;;;-2.43;100.00;102842.59;4949343;28;19922;-78
2021/12/21 07:53:32;;;;;;;;;;;;;;;-2.40;100.00;102843.56;4953394;28;20450;-77
2021/12/21 07:56:02;;;;;;;;;;;;;;;-2.41;100.00;102846.97;4957185;28;19918;-77
2021/12/21 07:58:29;;;;;;;;;;;;;;;-2.42;100.00;102850.34;4953671;28;19919;-77
2021/12/21 08:00:54;;;;;;;;;;;;;;;-2.49;100.00;102851.84;4951724;28;19918;-78
2021/12/21 08:03:20;;;;;;;;;;;;;;;-2.44;100.00;102845.97;4944551;28;19923;-76
2021/12/21 08:05:49;;;;;;;;;;;;;;;-2.40;100.00;102851.31;4946687;28;19919;-76
2021/12/21 08:08:18;;;;;;;;;;;;;;;-2.40;100.00;102859.03;4948871;28;19946;-75
2021/12/21 08:13:25;;;;;;;;;;;;;;;-2.45;100.00;102857.97;4946522;28;19914;-77
2021/12/21 08:15:50;;;;;;;;;;;;;;;-2.35;100.00;102859.19;4962389;28;20013;-77
2021/12/21 08:18:15;;;;;;;;;;;;;;;-2.37;100.00;102859.16;4979657;28;19937;-78
2021/12/21 08:20:41;;;;;;;;;;;;;;;-2.25;100.00;102857.88;4952968;28;19945;-76
2021/12/21 08:23:07;;;;;;;;;;;;;;;-2.20;100.00;102853.75;4950529;28;19997;-76
2021/12/21 08:25:47;;;;;;;;;;;;;;;-2.18;100.00;102859.88;4990737;28;20016;-77
2021/12/21 08:28:13;;;;;;;;;;;;;;;-2.27;100.00;102856.94;4953696;28;19964;-78
2021/12/21 08:30:38;;;;;;;;;;;;;;;-2.20;100.00;102846.03;4950346;28;19949;-77
2021/12/21 08:33:04;;;;;;;;;;;;;;;-2.20;100.00;102844.38;4960495;28;19921;-76
2021/12/21 08:35:30;;;;;;;;;;;;;;;-2.23;100.00;102853.66;4951045;28;19915;-77
2021/12/21 08:38:03;;;;;;;;;;;;;;;-2.21;100.00;102846.91;4956478;28;20275;-77
2021/12/21 08:40:38;;;;;;;;;;;;;;;-2.14;100.00;102848.88;4959370;28;19970;-80
2021/12/21 08:43:05;;;;;;;;;;;;;;;-2.02;100.00;102854.50;4949124;28;19915;-79
2021/12/21 08:45:31;;;;;;;;;;;;;;;-1.91;100.00;102854.03;4947113;28;19922;-77
2021/12/21 08:47:58;;;;;;;;;;;;;;;-1.92;100.00;102852.25;4956890;28;20402;-77
2021/12/21 08:50:23;;;;;;;;;;;;;;;-1.82;100.00;102849.22;4952338;28;20364;-78
2021/12/21 08:52:49;;;;;;;;;;;;;;;-1.81;100.00;102855.22;4954262;28;19969;-77
2021/12/21 08:55:17;;;;;;;;;;;;;;;-1.82;100.00;102846.63;4933957;28;19915;-78
2021/12/21 08:57:42;;;;;;;;;;;;;;;-1.81;100.00;102845.81;4949761;28;19914;-77
2021/12/21 09:00:08;;;;;;;;;;;;;;;-1.79;100.00;102851.91;4961552;28;19926;-78
2021/12/21 09:02:36;;;;;;;;;;;;;;;-1.80;100.00;102852.72;4954736;28;20005;-77
2021/12/21 09:05:07;;;;;;;;;;;;;;;-1.79;100.00;102845.84;4971622;28;19922;-77
2021/12/21 09:07:32;;;;;;;;;;;;;;;-1.73;100.00;102856.41;4963388;28;19918;-77
2021/12/21 09:09:57;;;;;;;;;;;;;;;-1.68;100.00;102848.84;4962233;28;19961;-78
2021/12/21 09:12:23;;;;;;;;;;;;;;;-1.51;100.00;102832.28;4963299;28;19950;-76
2021/12/21 09:14:48;;;;;;;;;;;;;;;-1.48;100.00;102839.25;4945797;28;19925;-77
2021/12/21 09:17:13;;;;;;;;;;;;;;;-1.43;100.00;102843.72;4983724;28;20391;-78
2021/12/21 09:19:38;;;;;;;;;;;;;;;-1.37;100.00;102843.06;4950042;28;19973;-77
2021/12/21 09:22:04;;;;;;;;;;;;;;;-1.35;100.00;102850.88;4959856;28;19914;-78
2021/12/21 09:24:29;;;;;;;;;;;;;;;-1.34;100.00;102858.66;4956668;28;20009;-76
2021/12/21 09:26:54;;;;;;;;;;;;;;;-1.26;100.00;102861.50;4951701;28;20042;-78
2021/12/21 09:29:19;;;;;;;;;;;;;;;-1.21;100.00;102875.44;4961663;28;19929;-76
2021/12/21 09:31:45;;;;;;;;;;;;;;;-1.17;100.00;102869.56;4944357;28;19918;-78
2021/12/21 09:34:10;;;;;;;;;;;;;;;-1.14;100.00;102874.84;4967947;28;20011;-76
2021/12/21 09:36:36;;;;;;;;;;;;;;;-1.06;100.00;102871.63;4947940;28;19940;-77
2021/12/21 09:39:01;;;;;;;;;;;;;;;-0.99;100.00;102866.75;4955080;28;19949;-78
2021/12/21 09:41:27;;;;;;;;;;;;;;;-0.97;100.00;102871.94;4949747;28;19988;-78
2021/12/21 09:43:52;;;;;;;;;;;;;;;-0.92;100.00;102873.00;4946019;28;19923;-78
2021/12/21 09:46:17;;;;;;;;;;;;;;;-0.88;100.00;102887.75;4949054;28;20316;-77
2021/12/21 09:48:44;;;;;;;;;;;;;;;-0.84;100.00;102873.25;4948624;28;19914;-77
2021/12/21 09:51:09;;;;;;;;;;;;;;;-0.75;100.00;102854.59;4957830;28;19944;-78
2021/12/21 09:53:36;;;;;;;;;;;;;;;-0.75;100.00;102852.91;4944524;28;19918;-78
2021/12/21 09:56:02;;;;;;;;;;;;;;;-0.68;100.00;102841.97;4947881;28;20001;-77
2021/12/21 09:58:27;;;;;;;;;;;;;;;-0.57;100.00;102846.59;4963535;28;19918;-77
2021/12/21 10:00:53;;;;;;;;;;;;;;;-0.54;100.00;102842.41;4948409;28;19929;-77
2021/12/21 10:03:18;;;;;;;;;;;;;;;-0.47;100.00;102834.03;4966933;28;20671;-77
2021/12/21 10:05:44;;;;;;;;;;;;;;;-0.32;100.00;102819.81;4946238;28;20407;-76
2021/12/21 10:08:11;;;;;;;;;;;;;;;-0.18;98.96;102820.25;4951813;28;19914;-78
2021/12/21 10:10:51;;;;;;;;;;;;;;;0.18;96.69;102818.69;4955842;28;19938;-78
2021/12/21 10:13:19;;;;;;;;;;;;;;;1.78;97.65;102829.63;4951828;28;19914;-76
2021/12/21 10:15:45;;;;;;;;;;;;;;;3.52;95.67;102815.50;4957940;28;20408;-77
2021/12/21 10:18:11;;;;;;;;;;;;;;;4.78;88.40;102776.19;4961319;28;19960;-76
2021/12/21 10:20:51;;;;;;;;;;;;;;;5.02;73.65;102703.44;4946752;28;20326;-76
2021/12/21 10:23:33;;;;;;;;;;;;;;;5.58;74.16;102717.66;4940887;28;19977;-76
2021/12/21 10:25:58;;;;;;;;;;;;;;;5.91;72.20;102705.59;4964005;28;19958;-76
2021/12/21 10:28:28;;;;;;;;;;;;;;;6.32;70.64;102704.84;4956938;28;19963;-77
2021/12/21 10:30:54;;;;;;;;;;;;;;;7.04;72.08;102718.75;4966027;28;19954;-75
2021/12/21 10:33:21;;;;;;;;;;;;;;;7.17;67.09;102687.38;4961022;28;19972;-76
2021/12/21 10:35:46;;;;;;;;;;;;;;;7.43;66.62;102687.28;4965138;28;19945;-76
2021/12/21 10:38:12;;;;;;;;;;;;;;;7.49;65.07;102673.31;4959965;28;20003;-76
2021/12/21 10:40:39;;;;;;;;;;;;;;;6.23;65.50;102675.28;4981682;28;19954;-77
2021/12/21 10:43:06;;;;;;;;;;;;;;;5.58;68.37;102695.03;4962389;28;20013;-76
2021/12/21 10:45:47;;;;;;;;;;;;;;;4.08;70.42;102708.72;4954482;28;19962;-76
2021/12/21 10:48:29;;;;;;;;;;;;;;;3.25;74.28;102732.84;4958425;28;20001;-76
2021/12/21 10:50:55;;;;;;;;;;;;;;;2.90;76.95;102748.75;4949096;28;20036;-76
2021/12/21 10:53:23;;;;;;;;;;;;;;;2.73;78.56;102758.84;4953230;28;20047;-76
2021/12/21 10:55:58;;;;;;;;;;;;;;;2.50;78.44;102748.03;4977283;28;20425;-76
2021/12/21 10:58:26;;;;;;;;;;;;;;;2.13;79.79;102759.50;4949348;28;19948;-76
2021/12/21 11:00:53;;;;;;;;;;;;;;;2.01;82.21;102770.50;4965117;28;19946;-77
2021/12/21 11:03:28;;;;;;;;;;;;;;;1.78;81.13;102756.19;4956179;28;20080;-75
2021/12/21 11:05:53;;;;;;;;;;;;;;;1.66;82.41;102762.84;4945835;28;20504;-75
2021/12/21 11:08:34;;;;;;;;;;;;;;;1.54;83.49;102767.78;4948083;28;20043;-77
2021/12/21 11:11:00;;;;;;;;;;;;;;;1.53;82.48;102766.03;4946383;28;19948;-76
2021/12/21 11:13:25;;;;;;;;;;;;;;;1.47;81.08;102753.81;4954449;28;20012;-75
2021/12/21 11:15:53;;;;;;;;;;;;;;;1.45;82.03;102765.84;4951170;28;20414;-75
2021/12/21 11:18:20;;;;;;;;;;;;;;;1.57;81.69;102749.69;4949100;28;19959;-77
2021/12/21 11:20:48;;;;;;;;;;;;;;;1.46;81.45;102749.47;4954350;28;19957;-79
2021/12/21 11:23:14;;;;;;;;;;;;;;;1.47;83.58;102765.88;4952268;28;20400;-82
2021/12/21 11:25:42;;;;;;;;;;;;;;;1.54;84.44;102765.19;4949494;28;19983;-76
2021/12/21 11:28:08;;;;;;;;;;;;;;;1.52;84.13;102759.09;4954047;28;19959;-75
2021/12/21 11:30:34;;;;;;;;;;;;;;;1.62;84.73;102766.22;4951170;28;19954;-77
2021/12/21 11:33:02;;;;;;;;;;;;;;;1.56;84.14;102755.72;4952574;28;20037;-76
2021/12/21 11:38:10;;;;;;;;;;;;;;;1.42;85.25;102760.59;4959562;28;19958;-76
2021/12/21 11:40:38;;;;;;;;;;;;;;;1.34;85.91;102755.25;4964291;28;19972;-76
2021/12/21 11:43:21;;;;;;;;;;;;;;;1.33;86.43;102745.72;4954074;28;19959;-76
2021/12/21 11:46:01;;;;;;;;;;;;;;;1.46;85.26;102736.53;4958346;28;21185;-74
2021/12/21 11:48:31;;;;;;;;;;;;;;;1.51;82.09;102728.84;4944845;28;20479;-76
2021/12/21 11:51:12;;;;;;;;;;;;;;;1.57;80.85;102708.25;4948264;28;19961;-74
2021/12/21 11:53:40;;;;;;;;;;;;;;;1.69;80.60;102716.28;4944154;28;19961;-77
2021/12/21 11:56:06;;;;;;;;;;;;;;;1.76;79.79;102698.28;4950546;28;19948;-75
2021/12/21 11:58:38;;;;;;;;;;;;;;;1.82;78.11;102686.28;4952478;28;20037;-78
2021/12/21 12:01:06;;;;;;;;;;;;;;;1.87;79.15;102686.41;4943905;28;19954;-78
2021/12/21 12:03:33;;;;;;;;;;;;;;;1.86;78.88;102689.84;4965834;28;19960;-77
2021/12/21 12:06:14;;;;;;;;;;;;;;;1.82;76.72;102675.06;4981014;28;19956;-76
2021/12/21 12:08:40;;;;;;;;;;;;;;;1.81;79.14;102675.91;4973856;28;19954;-75
2021/12/21 12:11:06;;;;;;;;;;;;;;;1.78;79.92;102683.63;4956127;28;20383;-76
2021/12/21 12:13:33;;;;;;;;;;;;;;;1.75;78.80;102678.41;4972994;28;19979;-75
2021/12/21 12:16:13;;;;;;;;;;;;;;;1.83;75.62;102653.50;4965500;28;19999;-76
2021/12/21 12:18:54;;;;;;;;;;;;;;;1.93;77.28;102658.00;4952361;28;19953;-77
2021/12/21 12:21:21;;;;;;;;;;;;;;;1.96;76.52;102646.81;4946070;28;19973;-76
2021/12/21 12:24:02;;;;;;;;;;;;;;;1.89;75.63;102648.41;4959087;28;19953;-77
2021/12/21 12:26:28;;;;;;;;;;;;;;;1.92;77.50;102669.22;4946905;28;20037;-80
2021/12/21 12:28:55;;;;;;;;;;;;;;;1.96;77.31;102658.06;4977364;28;19941;-74
2021/12/21 12:31:35;;;;;;;;;;;;;;;2.01;74.45;102646.06;4942094;28;20020;-77
2021/12/21 12:34:01;;;;;;;;;;;;;;;2.04;75.55;102652.16;4934314;28;19952;-79
2021/12/21 12:36:49;;;;;;;;;;;;;;;2.05;77.07;102656.50;4983213;28;20670;-85
2021/12/21 12:39:26;;;;;;;;;;;;;;;1.99;78.08;102665.88;4945236;28;19948;-78
2021/12/21 12:41:51;;;;;;;;;;;;;;;1.95;78.46;102669.28;4982302;28;19959;-77
2021/12/21 12:44:31;;;;;;;;;;;;;;;2.03;78.94;102673.72;4953127;28;19961;-76
2021/12/21 12:46:58;;;;;;;;;;;;;;;2.10;78.13;102670.38;4969966;28;19955;-76
2021/12/21 12:49:25;;;;;;;;;;;;;;;2.10;77.53;102663.50;4939793;28;19918;-76
2021/12/21 12:51:51;;;;;;;;;;;;;;;2.09;77.42;102653.13;4971681;28;20042;-74
2021/12/21 12:54:18;;;;;;;;;;;;;;;2.21;76.53;102649.84;4956344;28;20364;-77
2021/12/21 12:56:43;;;;;;;;;;;;;;;2.10;77.32;102649.66;4975305;28;19925;-75
2021/12/21 12:59:08;;;;;;;;;;;;;;;2.06;77.45;102656.50;4948155;28;19922;-77
2021/12/21 13:01:49;;;;;;;;;;;;;;;2.03;77.80;102653.00;4984430;28;19925;-75
2021/12/21 13:04:16;;;;;;;;;;;;;;;1.98;78.15;102648.59;4950138;28;20013;-76
2021/12/21 13:06:42;;;;;;;;;;;;;;;1.99;77.64;102646.88;4970827;28;19926;-75
2021/12/21 13:09:12;;;;;;;;;;;;;;;2.03;77.26;102642.63;4954662;28;19918;-77
2021/12/21 13:14:19;;;;;;;;;;;;;;;2.24;78.67;102650.78;4947821;28;19930;-77
2021/12/21 13:16:47;;;;;;;;;;;;;;;2.24;78.38;102649.91;4959637;28;19918;-75
2021/12/21 13:19:14;;;;;;;;;;;;;;;2.21;77.91;102647.25;4955111;28;20005;-74
2021/12/21 13:21:40;;;;;;;;;;;;;;;2.42;77.71;102637.25;4952338;28;19922;-76
2021/12/21 13:24:06;;;;;;;;;;;;;;;2.37;77.74;102635.41;4951626;28;19941;-78
2021/12/21 13:26:48;;;;;;;;;;;;;;;2.40;77.19;102630.28;4949740;28;19985;-75
2021/12/21 13:29:16;;;;;;;;;;;;;;;2.42;77.40;102631.19;4949795;28;19924;-77
2021/12/21 13:31:43;;;;;;;;;;;;;;;2.32;77.55;102636.22;4951183;28;19918;-76
2021/12/21 13:34:08;;;;;;;;;;;;;;;2.28;77.49;102629.25;4957423;28;19947;-76
2021/12/21 13:36:49;;;;;;;;;;;;;;;2.25;77.39;102625.72;4951535;28;19960;-77
2021/12/21 13:39:30;;;;;;;;;;;;;;;2.25;77.84;102628.31;4950693;28;20575;-76
2021/12/21 13:42:11;;;;;;;;;;;;;;;2.31;77.98;102633.59;4946059;28;19950;-77
2021/12/21 13:44:37;;;;;;;;;;;;;;;2.25;78.26;102628.31;4956955;28;20303;-77
2021/12/21 13:47:18;;;;;;;;;;;;;;;2.26;78.56;102624.88;4949329;28;20372;-75
2021/12/21 13:49:59;;;;;;;;;;;;;;;2.28;77.85;102612.78;4957096;28;19954;-77
2021/12/21 13:52:26;;;;;;;;;;;;;;;2.20;79.26;102623.06;4957427;28;19929;-75
2021/12/21 13:54:51;;;;;;;;;;;;;;;2.19;79.93;102621.31;4948450;28;19965;-74
2021/12/21 13:57:17;;;;;;;;;;;;;;;2.16;80.75;102639.41;4951531;28;19962;-75
2021/12/21 13:59:42;;;;;;;;;;;;;;;2.17;80.85;102636.81;4953525;28;19921;-76
2021/12/21 14:02:16;;;;;;;;;;;;;;;2.18;81.03;102640.31;4978015;28;19915;-77
2021/12/21 14:04:49;;;;;;;;;;;;;;;2.31;81.41;102639.69;4958432;28;19918;-76
2021/12/21 14:07:14;;;;;;;;;;;;;;;2.25;81.23;102634.38;4953992;28;19945;-76